Vernal, Mississippi
Current Conditions -  °F | °C
As of 5:56 AM on Friday 19 Dec 2014 (Local Time) from KMOB Reporting Station
Overcast Overcast  
Wind Chill: 51°   Ceiling: 4200
Heat Index: 51°   Visibility: 7mi
Dew Point: 44°   Wind: 10mph
Humidity: 77%   Direction: 40°NE
Pressure: 30.12"   Gusts: NA
Location:  30.8443°N, 88.5703°W
Report Text: KMOB 191156Z 04009KT 7SM FEW032 OVC042 11/07 A3012 RMK AO2 SLP199 T01060067 10111 20100 55005 $
Loading
Personal Weather Stations






























Interactive Weather Map New forecast layout! Learn more

10-Day Weather Forecast

Advertisements
Track Severe Weather on mobile